Time;durP1;ratioP1;P1;durP2;ratioP2;P2;SDS_P1;SDS_P2;PMS_P1;PMS_P2;Temp;Humidity;BMP_temperature;BMP_pressure;BME280_temperature;BME280_humidity;BME280_pressure;Samples;Min_cycle;Max_cycle;Signal;HPM_P1;HPM_P2
2023/01/17 08:53:30;;;;;;;;;;;;;;;;;;4944815;23;19927;-89
2023/01/17 09:31:57;;;;;;;;;;;;;;;;;;4918684;29;19929;-93
2023/01/17 09:34:25;;;;;;;;;;;;;;;;;;4921185;29;19919;-90
2023/01/17 09:36:50;;;;;;;;;;;;;;;;;;4920214;29;20014;-90
2023/01/17 09:39:15;;;;;;;;;;;;;;;;;;4918554;29;20021;-89
2023/01/17 09:41:47;;;;;;;;;;;;;;;;;;4918808;29;19919;-88
2023/01/17 09:44:15;;;;;;;;;;;;;;;;;;4919312;29;20378;-86
2023/01/17 09:46:43;;;;;;;;;;;;;;;;;;4918229;29;19919;-85
2023/01/17 09:49:12;;;;;;;;;;;;;;;;;;4918935;29;19967;-86
2023/01/17 09:51:37;;;;;;;;;;;;;;;;;;4917943;29;19923;-86
2023/01/17 09:54:03;;;;;;;;;;;;;;;;;;4918668;29;20333;-86
2023/01/17 09:56:28;;;;;;;;;;;;;;;;;;4919192;29;19919;-85
2023/01/17 09:59:19;;;;;;;;;;;;;;;;;;4918968;29;19919;-86
2023/01/17 10:01:44;;;;;;;;;;;;;;;;;;4918907;29;20333;-86
2023/01/17 10:04:12;;;;;;;;;;;;;;;;;;4917586;29;19923;-86
2023/01/17 10:06:45;;;;;;;;;;;;;;;;;;4918803;29;19919;-86
2023/01/17 10:09:17;;;;;;;;;;;;;;;;;;4918806;29;19919;-88
2023/01/17 10:12:21;;;;;;;;;;;;;;;;;;4918728;29;19946;-86
2023/01/17 10:14:52;;;;;;;;;;;;;;;;;;4863692;29;19923;-87
2023/01/17 10:17:26;;;;;;;;;;;;;;;;;;4863433;29;19919;-86
2023/01/17 10:19:57;;;;;;;;;;;;;;;;;;4879206;29;19967;-83
2023/01/17 10:22:31;;;;;;;;;;;;;;;;;;4879028;29;19927;-88
2023/01/17 10:25:09;;;;;;;;;;;;;;;;;;4863398;29;19960;-88
2023/01/17 10:27:37;;;;;;;;;;;;;;;;;;4879221;29;19956;-85
2023/01/17 10:30:03;;;;;;;;;;;;;;;;;;4879240;29;19932;-87
2023/01/17 10:32:31;;;;;;;;;;;;;;;;;;4878934;29;20022;-87
2023/01/17 10:35:00;;;;;;;;;;;;;;;;;;4863380;29;20049;-87
2023/01/17 10:37:42;;;;;;;;;;;;;;;;;;4878911;29;20055;-87
2023/01/17 10:40:20;;;;;;;;;;;;;;;;;;4863387;29;19920;-88
2023/01/17 10:42:55;;;;;;;;;;;;;;;;;;4878634;29;19946;-87
2023/01/17 10:45:27;;;;;;;;;;;;;;;;;;4884699;29;20343;-87
2023/01/17 10:48:11;;;;;;;;;;;;;;;;;;4918108;29;19923;-87
2023/01/17 10:50:43;;;;;;;;;;;;;;;;;;4917170;29;20038;-88
2023/01/17 10:53:13;;;;;;;;;;;;;;;;;;4917122;29;20263;-90
2023/01/17 10:55:41;;;;;;;;;;;;;;;;;;4916919;29;19919;-87
2023/01/17 10:58:09;;;;;;;;;;;;;;;;;;4917779;29;19919;-88
2023/01/17 11:00:42;;;;;;;;;;;;;;;;;;4918360;29;20289;-88
2023/01/17 11:03:12;;;;;;;;;;;;;;;;;;4917221;29;20038;-89
2023/01/17 11:05:39;;;;;;;;;;;;;;;;;;4918306;29;19924;-91
2023/01/17 11:08:14;;;;;;;;;;;;;;;;;;4917377;29;19926;-91
2023/01/17 11:10:44;;;;;;;;;;;;;;;;;;4917484;29;19919;-91
2023/01/17 11:13:21;;;;;;;;;;;;;;;;;;4918766;29;20013;-89
2023/01/17 11:15:47;;;;;;;;;;;;;;;;;;4917700;29;19919;-89
2023/01/17 11:18:18;;;;;;;;;;;;;;;;;;4918778;29;19974;-95
2023/01/17 11:20:44;;;;;;;;;;;;;;;;;;4919388;29;19919;-92
2023/01/17 11:23:10;;;;;;;;;;;;;;;;;;4917386;29;19925;-89
2023/01/17 11:25:36;;;;;;;;;;;;;;;;;;4916929;29;19920;-88
2023/01/17 11:28:06;;;;;;;;;;;;;;;;;;4916569;29;19919;-89
2023/01/17 11:30:32;;;;;;;;;;;;;;;;;;4917070;29;19926;-89
2023/01/17 11:33:03;;;;;;;;;;;;;;;;;;4917033;29;19919;-93
2023/01/17 11:35:29;;;;;;;;;;;;;;;;;;4922893;29;19951;-91
2023/01/17 11:37:58;;;;;;;;;;;;;;;;;;4920962;29;19919;-90
2023/01/17 11:40:26;;;;;;;;;;;;;;;;;;4916985;29;19919;-88
2023/01/17 11:42:58;;;;;;;;;;;;;;;;;;4916905;29;20314;-87
2023/01/17 11:45:25;;;;;;;;;;;;;;;;;;4917905;29;19920;-90
2023/01/17 11:48:09;;;;;;;;;;;;;;;;;;4919322;29;19915;-89
2023/01/17 11:50:36;;;;;;;;;;;;;;;;;;4918283;29;19923;-88
2023/01/17 11:53:06;;;;;;;;;;;;;;;;;;4916977;29;19922;-89
2023/01/17 11:55:31;;;;;;;;;;;;;;;;;;4917171;29;19919;-87
2023/01/17 11:57:57;;;;;;;;;;;;;;;;;;4918139;29;19942;-91
2023/01/17 12:00:52;;;;;;;;;;;;;;;;;;4916763;29;20310;-93
2023/01/17 12:03:41;;;;;;;;;;;;;;;;;;4904520;29;19919;-90
2023/01/17 12:06:10;;;;;;;;;;;;;;;;;;4890620;29;19962;-90
2023/01/17 12:08:41;;;;;;;;;;;;;;;;;;4917356;29;20009;-90
2023/01/17 12:11:07;;;;;;;;;;;;;;;;;;4920496;29;20062;-93
2023/01/17 12:14:01;;;;;;;;;;;;;;;;;;4920656;29;20006;-91
2023/01/17 12:16:53;;;;;;;;;;;;;;;;;;4871698;29;19919;-89
2023/01/17 12:19:19;;;;;;;;;;;;;;;;;;4921607;29;19923;-90
2023/01/17 12:22:03;;;;;;;;;;;;;;;;;;4920469;29;19962;-91
2023/01/17 12:24:34;;;;;;;;;;;;;;;;;;4921478;29;20457;-92
2023/01/17 12:27:09;;;;;;;;;;;;;;;;;;4920614;29;19919;-92
2023/01/17 12:29:41;;;;;;;;;;;;;;;;;;4920131;29;20362;-93
2023/01/17 12:32:19;;;;;;;;;;;;;;;;;;4919939;29;19923;-90
2023/01/17 12:34:45;;;;;;;;;;;;;;;;;;4920080;29;19919;-90
2023/01/17 12:37:16;;;;;;;;;;;;;;;;;;4919905;29;19924;-90
2023/01/17 12:39:47;;;;;;;;;;;;;;;;;;4920147;29;19923;-90
2023/01/17 12:42:22;;;;;;;;;;;;;;;;;;4919548;29;19922;-89
2023/01/17 12:44:50;;;;;;;;;;;;;;;;;;4921044;29;19919;-89
2023/01/17 17:41:30;;;;;;;;;;;;;;;;;;4931683;29;19966;-92
2023/01/17 17:43:56;;;;;;;;;;;;;;;;;;4919113;29;20397;-95
2023/01/17 17:46:22;;;;;;;;;;;;;;;;;;4919277;29;19919;-93
2023/01/17 17:48:48;;;;;;;;;;;;;;;;;;4920590;29;19919;-91
2023/01/17 17:51:24;;;;;;;;;;;;;;;;;;4919922;29;19927;-92
2023/01/17 17:53:51;;;;;;;;;;;;;;;;;;4920216;29;19926;-93
2023/01/17 17:56:16;;;;;;;;;;;;;;;;;;4919312;29;19926;-93
2023/01/17 17:58:42;;;;;;;;;;;;;;;;;;4918512;29;19920;-95
2023/01/17 18:01:07;;;;;;;;;;;;;;;;;;4918620;29;19919;-95
2023/01/17 18:03:33;;;;;;;;;;;;;;;;;;4918874;29;19927;-94
2023/01/17 18:06:09;;;;;;;;;;;;;;;;;;4919173;29;19942;-91
2023/01/17 18:08:35;;;;;;;;;;;;;;;;;;4920850;29;19930;-94
2023/01/17 18:11:02;;;;;;;;;;;;;;;;;;4918688;29;19919;-96
2023/01/17 18:13:28;;;;;;;;;;;;;;;;;;4919674;29;19961;-96
2023/01/17 18:16:04;;;;;;;;;;;;;;;;;;4918579;29;19926;-94
2023/01/17 18:18:31;;;;;;;;;;;;;;;;;;4918365;29;19967;-96
2023/01/17 18:21:05;;;;;;;;;;;;;;;;;;4919108;29;19919;-95
2023/01/17 18:23:31;;;;;;;;;;;;;;;;;;4918870;29;19919;-94
2023/01/17 18:25:56;;;;;;;;;;;;;;;;;;4919361;29;20429;-96
2023/01/17 18:28:21;;;;;;;;;;;;;;;;;;4919588;29;19919;-95
2023/01/17 18:30:47;;;;;;;;;;;;;;;;;;4918448;29;19919;-96
2023/01/17 18:33:12;;;;;;;;;;;;;;;;;;4918428;29;19919;-96
2023/01/17 18:35:37;;;;;;;;;;;;;;;;;;4920411;29;20018;-89
2023/01/17 18:38:03;;;;;;;;;;;;;;;;;;4919284;29;19923;-95
2023/01/17 18:40:28;;;;;;;;;;;;;;;;;;4924141;29;19926;-93
2023/01/17 18:42:53;;;;;;;;;;;;;;;;;;4922837;29;20421;-94
2023/01/17 18:45:18;;;;;;;;;;;;;;;;;;4918143;29;19919;-96
2023/01/17 18:47:44;;;;;;;;;;;;;;;;;;4928360;29;19923;-94
2023/01/17 18:50:09;;;;;;;;;;;;;;;;;;4937722;23;19988;-96
2023/01/17 18:52:42;;;;;;;;;;;;;;;;;;4928672;29;19927;-96
2023/01/17 18:55:10;;;;;;;;;;;;;;;;;;4927313;29;19919;-95
2023/01/17 18:57:39;;;;;;;;;;;;;;;;;;4935221;23;20290;-96
2023/01/17 19:00:06;;;;;;;;;;;;;;;;;;4920212;29;19927;-90
2023/01/17 19:02:31;;;;;;;;;;;;;;;;;;4932329;23;20022;-94
2023/01/17 19:05:04;;;;;;;;;;;;;;;;;;4938053;29;19923;-96
2023/01/17 19:07:31;;;;;;;;;;;;;;;;;;4920121;29;19919;-95
2023/01/17 19:09:56;;;;;;;;;;;;;;;;;;4919486;29;20363;-90
2023/01/17 19:12:21;;;;;;;;;;;;;;;;;;4918231;29;19919;-96
2023/01/17 19:14:47;;;;;;;;;;;;;;;;;;4917302;29;19920;-89
2023/01/17 19:17:12;;;;;;;;;;;;;;;;;;4918700;29;20437;-91
2023/01/17 19:19:37;;;;;;;;;;;;;;;;;;4916954;29;20373;-91
2023/01/17 19:22:03;;;;;;;;;;;;;;;;;;4917017;29;19919;-90
2023/01/17 19:24:28;;;;;;;;;;;;;;;;;;4917468;29;19919;-93
2023/01/17 19:26:53;;;;;;;;;;;;;;;;;;4917198;29;19919;-90
2023/01/17 19:29:19;;;;;;;;;;;;;;;;;;4916728;29;19919;-91
2023/01/17 19:31:44;;;;;;;;;;;;;;;;;;4917202;29;19971;-94
2023/01/17 19:34:11;;;;;;;;;;;;;;;;;;4921164;29;19934;-93
2023/01/17 19:36:37;;;;;;;;;;;;;;;;;;4920062;29;19920;-94
2023/01/17 19:39:03;;;;;;;;;;;;;;;;;;4916882;29;19919;-89
2023/01/17 19:41:29;;;;;;;;;;;;;;;;;;4917822;29;19927;-88
2023/01/17 19:44:05;;;;;;;;;;;;;;;;;;4917117;29;20366;-88
2023/01/17 19:46:31;;;;;;;;;;;;;;;;;;4916325;29;19927;-89
2023/01/17 19:48:56;;;;;;;;;;;;;;;;;;4916952;29;19966;-89
2023/01/17 19:51:22;;;;;;;;;;;;;;;;;;4917898;29;19919;-89
2023/01/17 19:53:47;;;;;;;;;;;;;;;;;;4916674;29;20366;-89
2023/01/17 19:56:14;;;;;;;;;;;;;;;;;;4916241;29;19923;-88
2023/01/17 19:58:40;;;;;;;;;;;;;;;;;;4916196;29;19919;-89
2023/01/17 20:01:15;;;;;;;;;;;;;;;;;;4916374;29;19942;-89
2023/01/17 20:03:43;;;;;;;;;;;;;;;;;;4916463;29;19927;-90
2023/01/17 20:06:08;;;;;;;;;;;;;;;;;;4918237;29;20002;-91
2023/01/17 20:08:34;;;;;;;;;;;;;;;;;;4917254;29;20014;-92
2023/01/17 20:11:01;;;;;;;;;;;;;;;;;;4916887;29;19923;-93
2023/01/17 20:13:26;;;;;;;;;;;;;;;;;;4916933;29;19919;-91
2023/01/17 20:15:51;;;;;;;;;;;;;;;;;;4917844;29;20409;-91
2023/01/17 20:18:16;;;;;;;;;;;;;;;;;;4917803;29;20441;-90
2023/01/17 20:20:42;;;;;;;;;;;;;;;;;;4917838;29;19966;-90
2023/01/17 20:23:07;;;;;;;;;;;;;;;;;;4917816;29;19919;-90
2023/01/17 20:25:33;;;;;;;;;;;;;;;;;;4917542;29;19920;-90
2023/01/17 20:27:58;;;;;;;;;;;;;;;;;;4917516;29;19930;-91
2023/01/17 20:30:28;;;;;;;;;;;;;;;;;;4917953;29;19915;-90
2023/01/17 20:32:55;;;;;;;;;;;;;;;;;;4919907;29;19919;-90
2023/01/17 20:35:20;;;;;;;;;;;;;;;;;;4919539;29;20001;-90
2023/01/17 20:37:46;;;;;;;;;;;;;;;;;;4919633;29;20449;-90
2023/01/17 20:40:11;;;;;;;;;;;;;;;;;;4919480;29;20014;-90
2023/01/17 20:42:36;;;;;;;;;;;;;;;;;;4919569;29;19998;-91
2023/01/17 20:45:03;;;;;;;;;;;;;;;;;;4919588;29;19919;-90
2023/01/17 20:47:28;;;;;;;;;;;;;;;;;;4919318;29;19919;-91
2023/01/17 20:49:53;;;;;;;;;;;;;;;;;;4919345;29;19956;-91
2023/01/17 20:52:19;;;;;;;;;;;;;;;;;;4919541;29;19966;-90
2023/01/17 20:54:44;;;;;;;;;;;;;;;;;;4919392;29;19966;-91
2023/01/17 20:57:09;;;;;;;;;;;;;;;;;;4919167;29;19970;-85
2023/01/17 20:59:35;;;;;;;;;;;;;;;;;;4920851;29;19963;-93
2023/01/17 21:02:00;;;;;;;;;;;;;;;;;;4919258;29;19919;-90
2023/01/17 21:04:25;;;;;;;;;;;;;;;;;;4928762;29;19962;-90
2023/01/17 21:06:52;;;;;;;;;;;;;;;;;;4920390;29;19919;-90
2023/01/17 21:09:20;;;;;;;;;;;;;;;;;;4922688;29;20387;-90
2023/01/17 21:11:45;;;;;;;;;;;;;;;;;;4938198;29;19984;-91
2023/01/17 21:14:10;;;;;;;;;;;;;;;;;;4938154;29;20379;-89
2023/01/17 21:16:36;;;;;;;;;;;;;;;;;;4938097;29;19926;-89
2023/01/17 21:19:01;;;;;;;;;;;;;;;;;;4929552;29;19920;-92
2023/01/17 21:21:28;;;;;;;;;;;;;;;;;;4920209;29;19919;-90
2023/01/17 21:23:56;;;;;;;;;;;;;;;;;;4919431;29;19927;-91
2023/01/17 21:26:24;;;;;;;;;;;;;;;;;;4918915;29;19950;-91
2023/01/17 21:28:50;;;;;;;;;;;;;;;;;;4918869;29;20366;-90
2023/01/17 21:31:21;;;;;;;;;;;;;;;;;;4918997;29;19919;-88
2023/01/17 21:33:47;;;;;;;;;;;;;;;;;;4919529;29;19971;-90
2023/01/17 21:36:12;;;;;;;;;;;;;;;;;;4933846;29;19923;-92
2023/01/17 21:38:38;;;;;;;;;;;;;;;;;;4940333;29;20373;-90
2023/01/17 21:41:03;;;;;;;;;;;;;;;;;;4939851;29;19958;-89
2023/01/17 21:43:29;;;;;;;;;;;;;;;;;;4938808;29;20005;-91
2023/01/17 21:45:54;;;;;;;;;;;;;;;;;;4937548;29;19919;-91
2023/01/17 21:48:19;;;;;;;;;;;;;;;;;;4937865;29;19919;-91
2023/01/17 21:50:46;;;;;;;;;;;;;;;;;;4938770;29;19915;-91
2023/01/17 21:53:11;;;;;;;;;;;;;;;;;;4938537;29;19958;-90
2023/01/17 22:01:16;;;;;;;;;;;;;;;;;;4946221;29;19942;-89
2023/01/17 22:03:42;;;;;;;;;;;;;;;;;;4957466;29;19930;-89
2023/01/17 22:06:09;;;;;;;;;;;;;;;;;;4958015;29;19950;-90
2023/01/17 22:08:34;;;;;;;;;;;;;;;;;;4957058;29;19929;-89
2023/01/17 22:11:06;;;;;;;;;;;;;;;;;;4925502;29;19955;-90
2023/01/17 22:13:31;;;;;;;;;;;;;;;;;;4917965;29;19923;-90
2023/01/17 22:16:00;;;;;;;;;;;;;;;;;;4919241;29;20356;-90
2023/01/17 22:18:26;;;;;;;;;;;;;;;;;;4919112;29;20398;-91
2023/01/17 22:20:51;;;;;;;;;;;;;;;;;;4917757;29;19919;-90
2023/01/17 22:23:17;;;;;;;;;;;;;;;;;;4919359;29;20358;-92
2023/01/17 22:25:42;;;;;;;;;;;;;;;;;;4918261;29;19925;-92
2023/01/17 22:28:08;;;;;;;;;;;;;;;;;;4917875;29;19961;-92
2023/01/17 22:30:37;;;;;;;;;;;;;;;;;;4919423;29;19927;-93
2023/01/17 22:33:02;;;;;;;;;;;;;;;;;;4917928;29;19923;-91
2023/01/17 22:35:27;;;;;;;;;;;;;;;;;;4918017;29;19919;-92
2023/01/17 22:37:53;;;;;;;;;;;;;;;;;;4917931;29;19925;-91
2023/01/17 22:40:18;;;;;;;;;;;;;;;;;;4917999;29;19971;-93
2023/01/17 22:42:44;;;;;;;;;;;;;;;;;;4918006;29;19981;-92
2023/01/17 22:45:09;;;;;;;;;;;;;;;;;;4917913;29;19927;-92
2023/01/17 22:47:35;;;;;;;;;;;;;;;;;;4917495;29;19919;-93
2023/01/17 22:50:03;;;;;;;;;;;;;;;;;;4918881;29;19926;-92
2023/01/17 22:52:28;;;;;;;;;;;;;;;;;;4918326;29;19923;-91
2023/01/17 22:54:53;;;;;;;;;;;;;;;;;;4917697;29;20278;-92
2023/01/17 22:57:19;;;;;;;;;;;;;;;;;;4918419;29;19925;-92
2023/01/17 22:59:44;;;;;;;;;;;;;;;;;;4917547;29;20014;-91
2023/01/17 23:02:09;;;;;;;;;;;;;;;;;;4919145;29;19926;-92
2023/01/17 23:04:35;;;;;;;;;;;;;;;;;;4918570;29;20367;-92
2023/01/17 23:07:00;;;;;;;;;;;;;;;;;;4917251;29;19962;-91
2023/01/17 23:09:25;;;;;;;;;;;;;;;;;;4917429;29;20482;-91
2023/01/17 23:11:52;;;;;;;;;;;;;;;;;;4917447;29;20397;-91
2023/01/17 23:14:18;;;;;;;;;;;;;;;;;;4917329;29;19986;-91
2023/01/17 23:19:35;;;;;;;;;;;;;;;;;;4918536;29;19965;-91
2023/01/17 23:22:17;;;;;;;;;;;;;;;;;;4917274;29;20286;-91
2023/01/17 23:24:44;;;;;;;;;;;;;;;;;;4917087;29;19958;-90
2023/01/17 23:30:10;;;;;;;;;;;;;;;;;;4918410;29;20013;-92
